createdAt,value
2024-01-09T00:00:07.305Z,103567.59
2024-01-09T00:00:20.760Z,103568.38
2024-01-09T00:00:53.717Z,103570.06
2024-01-09T00:01:26.672Z,103570.88
2024-01-09T00:01:43.627Z,103569.97
2024-01-09T00:01:57.743Z,103571.66
2024-01-09T00:02:10.855Z,103572.47
2024-01-09T00:02:24.175Z,103572.47
2024-01-09T00:02:37.522Z,103571.56
2024-01-09T00:02:50.723Z,103574.94
2024-01-09T00:03:04.619Z,103569.78
2024-01-09T00:03:17.909Z,103568.03
2024-01-09T00:03:31.965Z,103564.53
2024-01-09T00:03:46.022Z,103565.47
2024-01-09T00:03:59.664Z,103566.25
2024-01-09T00:04:13.136Z,103565.34
2024-01-09T00:04:27.527Z,103571.38
2024-01-09T00:04:40.487Z,103569.63
2024-01-09T00:04:53.569Z,103566.94
2024-01-09T00:05:07.185Z,103572.97
2024-01-09T00:05:20.231Z,103569.41
2024-01-09T00:05:34.439Z,103571.22
2024-01-09T00:05:47.758Z,103573.78
2024-01-09T00:06:00.939Z,103574.56
2024-01-09T00:06:15.291Z,103569.41
2024-01-09T00:06:29.193Z,103568.63
2024-01-09T00:06:42.249Z,103564.25
2024-01-09T00:06:55.402Z,103568.53
2024-01-09T00:07:08.559Z,103572.81
2024-01-09T00:07:21.709Z,103566.84
2024-01-09T00:07:35.136Z,103568.44
2024-01-09T00:07:49.159Z,103567.66
2024-01-09T00:08:02.142Z,103571.00
2024-01-09T00:08:15.157Z,103568.34
2024-01-09T00:08:28.152Z,103571.00
2024-01-09T00:08:41.252Z,103573.59
2024-01-09T00:08:54.294Z,103569.25
2024-01-09T00:09:07.536Z,103571.00
2024-01-09T00:09:21.906Z,103571.81
2024-01-09T00:09:35.821Z,103570.94
2024-01-09T00:09:49.350Z,103569.25
2024-01-09T00:10:02.566Z,103562.28
2024-01-09T00:10:15.656Z,103564.88
2024-01-09T00:10:28.644Z,103566.66
2024-01-09T00:10:41.614Z,103565.69
2024-01-09T00:10:54.886Z,103569.13
2024-01-09T00:11:08.125Z,103570.81
2024-01-09T00:11:21.211Z,103563.97
2024-01-09T00:11:35.294Z,103569.94
2024-01-09T00:11:48.746Z,103566.44
2024-01-09T00:12:01.879Z,103561.31
2024-01-09T00:12:14.883Z,103563.88
2024-01-09T00:12:27.829Z,103562.13
2024-01-09T00:12:41.039Z,103562.13
2024-01-09T00:12:54.098Z,103562.13
2024-01-09T00:13:07.114Z,103567.28
2024-01-09T00:13:20.124Z,103563.69
2024-01-09T00:13:33.448Z,103568.03
2024-01-09T00:13:47.457Z,103562.81
2024-01-09T00:14:00.474Z,103565.41
2024-01-09T00:14:13.584Z,103562.72
2024-01-09T00:14:26.711Z,103568.69
2024-01-09T00:14:39.764Z,103565.19
2024-01-09T00:14:52.789Z,103570.44
2024-01-09T00:15:08.348Z,103567.69
2024-01-09T00:15:21.327Z,103570.28
2024-01-09T00:15:34.283Z,103568.47
2024-01-09T00:15:48.301Z,103577.06
2024-01-09T00:16:01.355Z,103571.03
2024-01-09T00:16:14.456Z,103566.69
2024-01-09T00:16:27.462Z,103569.28
2024-01-09T00:16:40.458Z,103569.22
2024-01-09T00:16:53.699Z,103569.22
2024-01-09T00:17:07.086Z,103561.47
2024-01-09T00:17:20.165Z,103565.75
2024-01-09T00:17:34.272Z,103568.31
2024-01-09T00:17:47.727Z,103571.69
2024-01-09T00:18:00.949Z,103564.84
2024-01-09T00:18:14.148Z,103569.09
2024-01-09T00:18:27.334Z,103565.66
2024-01-09T00:18:40.572Z,103569.03
2024-01-09T00:18:55.188Z,103570.69
2024-01-09T00:19:08.456Z,103562.09
2024-01-09T00:19:21.899Z,103566.34
2024-01-09T00:19:37.474Z,103564.56
2024-01-09T00:19:50.452Z,103564.56
2024-01-09T00:20:04.201Z,103568.81
2024-01-09T00:20:17.961Z,103567.94
2024-01-09T00:20:31.132Z,103571.41
2024-01-09T00:20:44.089Z,103569.63
2024-01-09T00:20:57.613Z,103565.38
2024-01-09T00:21:10.680Z,103572.22
2024-01-09T00:21:25.144Z,103570.50
2024-01-09T00:21:39.680Z,103577.34
2024-01-09T00:21:54.032Z,103565.25
2024-01-09T00:22:07.010Z,103568.72
2024-01-09T00:22:19.999Z,103574.69
2024-01-09T00:22:33.002Z,103579.81
2024-01-09T00:22:45.993Z,103570.41
2024-01-09T00:22:58.996Z,103569.53
2024-01-09T00:23:11.952Z,103574.69
2024-01-09T00:23:25.990Z,103572.00
2024-01-09T00:23:39.132Z,103575.44
2024-01-09T00:23:52.252Z,103578.03
2024-01-09T00:24:05.657Z,103572.88
2024-01-09T00:24:18.680Z,103572.88
2024-01-09T00:24:31.938Z,103572.00
2024-01-09T00:24:44.876Z,103572.88
2024-01-09T00:24:57.826Z,103578.03
2024-01-09T00:25:10.767Z,103567.66
2024-01-09T00:25:24.778Z,103566.75
2024-01-09T00:25:37.882Z,103573.69
2024-01-09T00:25:52.792Z,103568.53
2024-01-09T00:26:05.840Z,103578.84
2024-01-09T00:26:20.188Z,103574.47
2024-01-09T00:26:33.200Z,103566.75
2024-01-09T00:26:46.940Z,103570.22
2024-01-09T00:27:00.022Z,103571.13
2024-01-09T00:27:13.041Z,103569.31
2024-01-09T00:27:26.045Z,103571.88
2024-01-09T00:27:40.262Z,103574.47
2024-01-09T00:27:53.230Z,103569.31
2024-01-09T00:28:06.657Z,103572.69
2024-01-09T00:28:19.998Z,103572.69
2024-01-09T00:28:32.929Z,103575.28
2024-01-09T00:28:45.897Z,103571.00
2024-01-09T00:28:58.880Z,103575.28
2024-01-09T00:29:12.160Z,103577.84
2024-01-09T00:29:25.418Z,103573.50
2024-01-09T00:29:39.522Z,103576.97
2024-01-09T00:29:52.697Z,103578.66
2024-01-09T00:30:06.872Z,103576.97
2024-01-09T00:30:20.871Z,103576.09
2024-01-09T00:30:34.051Z,103575.16
2024-01-09T00:30:47.294Z,103575.16
2024-01-09T00:31:00.429Z,103575.16
2024-01-09T00:31:13.674Z,103577.75
2024-01-09T00:31:27.549Z,103571.72
2024-01-09T00:31:40.615Z,103569.13
2024-01-09T00:31:53.992Z,103582.00
2024-01-09T00:32:09.168Z,103578.66
2024-01-09T00:32:22.911Z,103571.72
2024-01-09T00:32:35.990Z,103573.41
2024-01-09T00:32:50.501Z,103568.25
2024-01-09T00:33:03.900Z,103577.75
2024-01-09T00:33:18.234Z,103572.59
2024-01-09T00:33:31.584Z,103574.28
2024-01-09T00:33:44.802Z,103576.09
2024-01-09T00:33:57.914Z,103572.59
2024-01-09T00:34:11.006Z,103574.28
2024-01-09T00:34:24.157Z,103573.41
2024-01-09T00:34:38.603Z,103579.44
2024-01-09T00:34:51.785Z,103574.19
2024-01-09T00:35:05.415Z,103579.44
2024-01-09T00:35:18.764Z,103576.75
2024-01-09T00:35:33.061Z,103582.81
2024-01-09T00:35:46.314Z,103581.91
2024-01-09T00:35:59.343Z,103578.44
2024-01-09T00:36:12.247Z,103575.88
2024-01-09T00:36:25.857Z,103576.75
2024-01-09T00:36:43.653Z,103579.25
2024-01-09T00:36:56.568Z,103577.56
2024-01-09T00:37:09.558Z,103581.03
2024-01-09T00:37:23.542Z,103579.25
2024-01-09T00:37:36.453Z,103584.41
2024-01-09T00:37:49.320Z,103574.09
2024-01-09T00:38:02.729Z,103578.34
2024-01-09T00:38:15.701Z,103576.69
2024-01-09T00:38:28.681Z,103579.25
2024-01-09T00:38:41.670Z,103571.44
2024-01-09T00:38:55.102Z,103578.34
2024-01-09T00:39:09.319Z,103572.19
2024-01-09T00:39:22.232Z,103570.53
2024-01-09T00:39:35.098Z,103578.25
2024-01-09T00:39:48.808Z,103573.88
2024-01-09T00:40:01.726Z,103579.03
2024-01-09T00:40:14.777Z,103574.69
2024-01-09T00:40:27.686Z,103572.13
2024-01-09T00:40:41.362Z,103569.56
2024-01-09T00:40:54.394Z,103576.41
2024-01-09T00:41:08.301Z,103575.47
2024-01-09T00:41:21.367Z,103570.31
2024-01-09T00:41:34.372Z,103581.53
2024-01-09T00:41:47.420Z,103574.59
2024-01-09T00:42:00.530Z,103576.41
2024-01-09T00:42:13.520Z,103578.88
2024-01-09T00:42:26.680Z,103570.31
2024-01-09T00:42:39.556Z,103577.06
2024-01-09T00:42:52.407Z,103578.75
2024-01-09T00:43:05.336Z,103575.31
2024-01-09T00:43:19.487Z,103576.19
2024-01-09T00:43:32.412Z,103572.72
2024-01-09T00:43:45.277Z,103574.41
2024-01-09T00:43:58.618Z,103573.50
2024-01-09T00:44:11.580Z,103576.06
2024-01-09T00:44:24.672Z,103576.06
2024-01-09T00:44:37.846Z,103573.50
2024-01-09T00:44:50.913Z,103576.88
2024-01-09T00:45:06.016Z,103578.66
2024-01-09T00:45:20.117Z,103577.75
2024-01-09T00:45:35.434Z,103574.31
2024-01-09T00:45:49.285Z,103576.88
2024-01-09T00:46:02.472Z,103576.88
2024-01-09T00:46:15.649Z,103576.88
2024-01-09T00:46:29.745Z,103576.06
2024-01-09T00:46:42.784Z,103576.88
2024-01-09T00:46:55.681Z,103572.50
2024-01-09T00:47:08.688Z,103575.09
2024-01-09T00:47:21.616Z,103569.94
2024-01-09T00:47:34.658Z,103575.09
2024-01-09T00:47:48.858Z,103573.31
2024-01-09T00:48:01.895Z,103575.09
2024-01-09T00:48:16.807Z,103576.00
2024-01-09T00:48:30.190Z,103571.63
2024-01-09T00:48:43.275Z,103576.78
2024-01-09T00:48:56.596Z,103577.66
2024-01-09T00:49:09.626Z,103575.09
2024-01-09T00:49:22.690Z,103578.56
2024-01-09T00:49:35.980Z,103575.09
2024-01-09T00:49:50.494Z,103573.44
2024-01-09T00:50:03.557Z,103576.00
2024-01-09T00:50:17.726Z,103575.09
2024-01-09T00:50:30.685Z,103573.44
2024-01-09T00:50:43.996Z,103574.31
2024-01-09T00:50:56.927Z,103576.00
2024-01-09T00:51:09.839Z,103579.47
2024-01-09T00:51:22.809Z,103574.19
2024-01-09T00:51:35.699Z,103575.09
2024-01-09T00:51:48.702Z,103574.19
2024-01-09T00:52:03.627Z,103572.50
2024-01-09T00:52:16.589Z,103575.09
2024-01-09T00:52:29.669Z,103575.09
2024-01-09T00:52:42.620Z,103577.66
2024-01-09T00:52:55.641Z,103574.19
2024-01-09T00:53:09.142Z,103582.81
2024-01-09T00:53:22.315Z,103575.09
2024-01-09T00:53:35.287Z,103576.00
2024-01-09T00:53:48.185Z,103580.22
2024-01-09T00:54:01.107Z,103580.22
2024-01-09T00:54:14.106Z,103575.09
2024-01-09T00:54:28.053Z,103575.09
2024-01-09T00:54:43.310Z,103575.09
2024-01-09T00:54:56.278Z,103574.19
2024-01-09T00:55:09.614Z,103574.19
2024-01-09T00:55:22.547Z,103579.34
2024-01-09T00:55:35.375Z,103578.47
2024-01-09T00:55:48.585Z,103574.19
2024-01-09T00:56:01.442Z,103578.47
2024-01-09T00:56:15.529Z,103572.44
2024-01-09T00:56:42.939Z,103573.31
2024-01-09T00:56:56.079Z,103580.16
2024-01-09T00:57:09.044Z,103576.69
2024-01-09T00:57:23.250Z,103577.59
2024-01-09T00:57:37.199Z,103581.84
2024-01-09T00:57:50.048Z,103578.47
2024-01-09T00:58:02.985Z,103581.84
2024-01-09T00:58:16.892Z,103576.69
2024-01-09T00:58:29.961Z,103575.78
2024-01-09T00:58:42.949Z,103576.69
2024-01-09T00:58:55.911Z,103583.63
2024-01-09T00:59:09.560Z,103581.84
2024-01-09T00:59:22.553Z,103581.03
2024-01-09T00:59:36.028Z,103583.63
2024-01-09T00:59:49.231Z,103586.19
2024-01-09T01:00:02.126Z,103578.47
2024-01-09T01:00:17.904Z,103585.31
2024-01-09T01:00:30.823Z,103583.63
2024-01-09T01:00:43.761Z,103588.75
2024-01-09T01:00:57.014Z,103579.34
2024-01-09T01:01:10.976Z,103583.63
2024-01-09T01:01:24.036Z,103578.47
2024-01-09T01:01:37.085Z,103584.50
2024-01-09T01:01:50.847Z,103582.81
2024-01-09T01:02:05.273Z,103575.88
2024-01-09T01:02:18.313Z,103583.63
2024-01-09T01:02:31.310Z,103578.47
2024-01-09T01:02:44.218Z,103579.34
2024-01-09T01:02:57.357Z,103575.09
2024-01-09T01:03:10.258Z,103587.19
2024-01-09T01:03:23.270Z,103585.38
2024-01-09T01:03:36.425Z,103579.34
2024-01-09T01:03:50.852Z,103581.03
2024-01-09T01:04:03.922Z,103585.38
2024-01-09T01:04:17.026Z,103583.63
2024-01-09T01:04:30.101Z,103580.16
2024-01-09T01:04:43.288Z,103588.75
2024-01-09T01:04:57.667Z,103584.50
2024-01-09T01:05:14.320Z,103581.03
2024-01-09T01:05:27.580Z,103588.75
2024-01-09T01:05:40.657Z,103582.72
2024-01-09T01:05:54.945Z,103581.84
2024-01-09T01:06:08.184Z,103585.19
2024-01-09T01:06:21.138Z,103587.00
2024-01-09T01:06:41.566Z,103577.47
2024-01-09T01:06:54.668Z,103587.00
2024-01-09T01:07:07.740Z,103586.09
2024-01-09T01:07:20.739Z,103581.84
2024-01-09T01:07:33.941Z,103585.19
2024-01-09T01:07:46.819Z,103585.19
2024-01-09T01:08:00.865Z,103580.06
2024-01-09T01:08:13.833Z,103577.47
2024-01-09T01:08:26.742Z,103578.28
2024-01-09T01:08:39.806Z,103586.88
2024-01-09T01:08:53.025Z,103580.84
2024-01-09T01:09:06.239Z,103579.06
2024-01-09T01:09:19.719Z,103578.28
2024-01-09T01:09:32.767Z,103586.78
2024-01-09T01:09:45.668Z,103577.38
2024-01-09T01:09:59.575Z,103582.53
2024-01-09T01:10:17.541Z,103581.63
2024-01-09T01:10:32.945Z,103575.59
2024-01-09T01:10:45.950Z,103575.59
2024-01-09T01:10:58.889Z,103573.03
2024-01-09T01:11:12.239Z,103576.50
2024-01-09T01:11:25.246Z,103577.28
2024-01-09T01:11:39.411Z,103578.19
2024-01-09T01:11:52.491Z,103578.19
2024-01-09T01:12:06.103Z,103574.72
2024-01-09T01:12:19.035Z,103579.88
2024-01-09T01:12:32.475Z,103571.22
2024-01-09T01:12:45.543Z,103573.81
2024-01-09T01:12:58.491Z,103578.06
2024-01-09T01:13:12.498Z,103578.06
2024-01-09T01:13:25.439Z,103571.16
2024-01-09T01:13:38.379Z,103572.94
2024-01-09T01:13:51.275Z,103575.50
2024-01-09T01:14:04.264Z,103571.16
2024-01-09T01:14:17.228Z,103577.19
2024-01-09T01:14:30.213Z,103577.19
2024-01-09T01:14:43.564Z,103578.06
2024-01-09T01:14:56.582Z,103577.09
2024-01-09T01:15:10.306Z,103573.72
2024-01-09T01:15:25.286Z,103578.88
2024-01-09T01:15:38.200Z,103575.38
2024-01-09T01:15:51.087Z,103578.88
2024-01-09T01:16:04.189Z,103578.88
2024-01-09T01:16:17.081Z,103577.09
2024-01-09T01:16:29.998Z,103577.09
2024-01-09T01:16:43.103Z,103581.47
2024-01-09T01:16:56.054Z,103581.47
2024-01-09T01:17:09.178Z,103582.34
2024-01-09T01:17:23.257Z,103573.72
2024-01-09T01:17:36.323Z,103572.03
2024-01-09T01:17:49.406Z,103580.66
2024-01-09T01:18:02.832Z,103576.31
2024-01-09T01:18:16.194Z,103577.19
2024-01-09T01:18:29.253Z,103572.94
2024-01-09T01:18:42.260Z,103575.50
2024-01-09T01:18:55.300Z,103576.38
2024-01-09T01:19:08.443Z,103575.50
2024-01-09T01:19:22.508Z,103578.94
2024-01-09T01:19:35.695Z,103577.28
2024-01-09T01:19:48.744Z,103572.94
2024-01-09T01:20:03.772Z,103574.63
2024-01-09T01:20:16.876Z,103572.16
2024-01-09T01:20:29.983Z,103572.94
2024-01-09T01:20:43.127Z,103572.16
2024-01-09T01:20:56.191Z,103573.81
2024-01-09T01:21:10.185Z,103572.94
2024-01-09T01:21:23.515Z,103572.94
2024-01-09T01:21:36.464Z,103579.88
2024-01-09T01:21:49.797Z,103573.81
2024-01-09T01:22:02.724Z,103573.81
2024-01-09T01:22:15.837Z,103572.03
2024-01-09T01:22:28.806Z,103564.31
2024-01-09T01:22:42.391Z,103572.94
2024-01-09T01:22:55.376Z,103572.94
2024-01-09T01:23:09.572Z,103570.34
2024-01-09T01:23:22.550Z,103567.78
2024-01-09T01:23:35.538Z,103571.16
2024-01-09T01:23:48.850Z,103567.78
2024-01-09T01:24:01.986Z,103572.03
2024-01-09T01:24:15.210Z,103577.19
2024-01-09T01:24:28.199Z,103575.50
2024-01-09T01:24:42.133Z,103567.78
2024-01-09T01:24:55.059Z,103566.91
2024-01-09T01:25:09.429Z,103577.19
2024-01-09T01:25:22.726Z,103576.38
2024-01-09T01:25:36.021Z,103578.06
2024-01-09T01:25:49.221Z,103578.06
2024-01-09T01:26:02.132Z,103572.03
2024-01-09T01:26:16.378Z,103577.19
2024-01-09T01:26:30.535Z,103580.66
2024-01-09T01:26:43.528Z,103580.66
2024-01-09T01:26:56.481Z,103580.66
2024-01-09T01:27:09.468Z,103577.19
2024-01-09T01:27:22.452Z,103578.06
2024-01-09T01:27:35.366Z,103575.50
2024-01-09T01:27:48.241Z,103578.06
2024-01-09T01:28:02.176Z,103582.34
2024-01-09T01:28:15.446Z,103578.94
2024-01-09T01:28:28.376Z,103579.88
2024-01-09T01:28:41.433Z,103572.94
2024-01-09T01:28:54.379Z,103577.97
2024-01-09T01:29:07.868Z,103583.22
2024-01-09T01:29:20.824Z,103583.22
2024-01-09T01:29:33.725Z,103577.19
2024-01-09T01:29:46.860Z,103574.72
2024-01-09T01:29:59.994Z,103578.06
2024-01-09T01:30:14.253Z,103578.06
2024-01-09T01:30:27.231Z,103581.47
2024-01-09T01:30:40.229Z,103582.34
2024-01-09T01:30:53.621Z,103578.88
2024-01-09T01:31:06.628Z,103579.66
2024-01-09T01:31:19.587Z,103580.53
2024-01-09T01:31:32.469Z,103575.38
2024-01-09T01:31:47.041Z,103580.53
2024-01-09T01:32:00.987Z,103574.50
2024-01-09T01:32:13.978Z,103579.66
2024-01-09T01:32:27.022Z,103576.19
2024-01-09T01:32:40.977Z,103576.09
2024-01-09T01:32:53.965Z,103586.38
2024-01-09T01:33:07.691Z,103578.66
2024-01-09T01:33:21.370Z,103574.31
2024-01-09T01:33:34.567Z,103570.94
2024-01-09T01:33:47.605Z,103576.09
2024-01-09T01:34:01.660Z,103575.22
2024-01-09T01:34:15.200Z,103574.31
2024-01-09T01:34:28.178Z,103576.78
2024-01-09T01:34:41.483Z,103574.31
2024-01-09T01:34:54.459Z,103574.31
2024-01-09T01:35:09.293Z,103572.53
2024-01-09T01:35:22.240Z,103578.59
2024-01-09T01:35:35.154Z,103569.94
2024-01-09T01:35:49.254Z,103582.81
2024-01-09T01:36:02.188Z,103579.38
2024-01-09T01:36:15.956Z,103575.91
2024-01-09T01:36:28.883Z,103576.69
2024-01-09T01:36:41.732Z,103574.09
2024-01-09T01:36:54.702Z,103574.09
2024-01-09T01:37:07.711Z,103569.88
2024-01-09T01:37:20.780Z,103576.69
2024-01-09T01:37:34.864Z,103574.09
2024-01-09T01:37:47.738Z,103571.47
2024-01-09T01:38:00.644Z,103577.50
2024-01-09T01:38:13.649Z,103575.69
2024-01-09T01:38:27.285Z,103573.13
2024-01-09T01:38:40.313Z,103574.81
2024-01-09T01:38:53.295Z,103575.69
2024-01-09T01:39:06.253Z,103573.94
2024-01-09T01:39:20.573Z,103574.03
2024-01-09T01:39:33.467Z,103575.69
2024-01-09T01:39:46.701Z,103563.63
2024-01-09T01:39:59.545Z,103573.13
2024-01-09T01:40:13.531Z,103565.41
2024-01-09T01:40:26.471Z,103574.03
2024-01-09T01:40:39.394Z,103568.78
2024-01-09T01:40:52.374Z,103570.47
2024-01-09T01:41:06.706Z,103560.06
2024-01-09T01:41:19.794Z,103569.59
2024-01-09T01:41:32.713Z,103575.50
2024-01-09T01:41:45.665Z,103563.53
2024-01-09T01:41:58.676Z,103572.94
2024-01-09T01:42:11.978Z,103565.22
2024-01-09T01:42:24.889Z,103573.75
2024-01-09T01:42:37.817Z,103573.75
2024-01-09T01:42:50.890Z,103568.59
2024-01-09T01:43:06.601Z,103574.63
2024-01-09T01:43:19.789Z,103571.94
2024-01-09T01:43:32.749Z,103571.94
2024-01-09T01:43:45.735Z,103572.81
2024-01-09T01:43:58.643Z,103575.31
2024-01-09T01:44:18.149Z,103575.31
2024-01-09T01:44:31.216Z,103574.50
2024-01-09T01:44:44.225Z,103580.47
2024-01-09T01:44:57.318Z,103575.31
2024-01-09T01:45:18.869Z,103576.97
2024-01-09T01:45:31.978Z,103575.31
2024-01-09T01:45:44.943Z,103578.66
2024-01-09T01:45:57.833Z,103578.66
2024-01-09T01:46:11.074Z,103576.09
2024-01-09T01:46:24.194Z,103583.81
2024-01-09T01:46:37.502Z,103582.94
2024-01-09T01:46:52.692Z,103576.09
2024-01-09T01:47:07.035Z,103573.53
2024-01-09T01:47:20.449Z,103584.69
2024-01-09T01:47:34.054Z,103581.25
2024-01-09T01:47:49.360Z,103578.66
2024-01-09T01:48:04.603Z,103582.06
2024-01-09T01:48:17.913Z,103579.47
2024-01-09T01:48:33.019Z,103582.06
2024-01-09T01:48:47.292Z,103581.13
2024-01-09T01:49:00.529Z,103580.25
2024-01-09T01:49:15.825Z,103581.13
2024-01-09T01:49:29.064Z,103579.38
2024-01-09T01:49:42.717Z,103588.78
2024-01-09T01:49:55.926Z,103581.84
2024-01-09T01:50:10.622Z,103583.63
2024-01-09T01:50:24.161Z,103581.84
2024-01-09T01:50:38.740Z,103580.94
2024-01-09T01:50:52.054Z,103584.41
2024-01-09T01:51:05.848Z,103586.97
2024-01-09T01:51:19.303Z,103584.34
2024-01-09T01:51:32.212Z,103590.34
2024-01-09T01:51:46.650Z,103580.84
2024-01-09T01:52:00.681Z,103585.09
2024-01-09T01:52:14.528Z,103581.66
2024-01-09T01:52:28.733Z,103579.84
2024-01-09T01:52:43.092Z,103582.41
2024-01-09T01:52:56.397Z,103578.97
2024-01-09T01:53:09.931Z,103578.97
2024-01-09T01:53:23.352Z,103585.00
2024-01-09T01:53:37.365Z,103581.44
2024-01-09T01:53:51.123Z,103588.38
2024-01-09T01:54:04.218Z,103572.94
2024-01-09T01:54:17.574Z,103578.09
2024-01-09T01:54:34.525Z,103584.00
2024-01-09T01:54:47.971Z,103581.44
2024-01-09T01:55:01.097Z,103582.34
2024-01-09T01:55:15.744Z,103581.44
2024-01-09T01:55:30.046Z,103584.91
2024-01-09T01:55:43.241Z,103583.22
2024-01-09T01:55:56.847Z,103582.34
2024-01-09T01:56:10.050Z,103577.09
2024-01-09T01:56:23.783Z,103578.84
2024-01-09T01:56:37.154Z,103578.84
2024-01-09T01:56:53.015Z,103576.28
2024-01-09T01:57:07.353Z,103585.00
2024-01-09T01:57:20.585Z,103573.72
2024-01-09T01:57:33.757Z,103577.19
2024-01-09T01:57:48.899Z,103572.84
2024-01-09T01:58:03.444Z,103584.81
2024-01-09T01:58:16.797Z,103573.63
2024-01-09T01:58:33.554Z,103577.09
2024-01-09T01:58:47.872Z,103575.41
2024-01-09T01:59:01.870Z,103582.25
2024-01-09T01:59:18.221Z,103577.91
2024-01-09T01:59:33.687Z,103577.09
2024-01-09T01:59:47.605Z,103587.38
2024-01-09T02:00:00.692Z,103583.03
2024-01-09T02:00:16.238Z,103579.56
2024-01-09T02:00:29.724Z,103579.56
2024-01-09T02:00:43.590Z,103581.25
2024-01-09T02:00:56.995Z,103582.13
2024-01-09T02:01:11.961Z,103576.09
2024-01-09T02:01:25.193Z,103577.91
2024-01-09T02:01:39.577Z,103579.56
2024-01-09T02:01:53.614Z,103583.03
2024-01-09T02:02:07.246Z,103576.09
2024-01-09T02:02:20.532Z,103579.56
2024-01-09T02:02:33.844Z,103576.97
2024-01-09T02:02:49.130Z,103582.13
2024-01-09T02:03:03.039Z,103574.41
2024-01-09T02:03:17.153Z,103581.25
2024-01-09T02:03:30.326Z,103578.69
2024-01-09T02:03:43.462Z,103578.69
2024-01-09T02:03:57.328Z,103581.25
2024-01-09T02:04:11.472Z,103581.25
2024-01-09T02:04:25.993Z,103576.09
2024-01-09T02:04:40.717Z,103579.47
2024-01-09T02:04:54.361Z,103577.78
2024-01-09T02:05:10.926Z,103586.41
2024-01-09T02:05:27.155Z,103575.22
2024-01-09T02:05:40.857Z,103584.63
2024-01-09T02:05:54.853Z,103576.91
2024-01-09T02:06:08.477Z,103579.47
2024-01-09T02:06:21.495Z,103580.38
2024-01-09T02:06:35.265Z,103584.63
2024-01-09T02:06:48.544Z,103584.63
2024-01-09T02:07:02.228Z,103584.50
2024-01-09T02:07:16.261Z,103581.94
2024-01-09T02:07:31.818Z,103582.81
2024-01-09T02:07:47.271Z,103593.13
2024-01-09T02:08:02.463Z,103588.84
2024-01-09T02:08:16.373Z,103593.13
2024-01-09T02:08:31.773Z,103582.81
2024-01-09T02:08:45.428Z,103581.06
2024-01-09T02:08:59.441Z,103581.06
2024-01-09T02:09:12.397Z,103580.16
2024-01-09T02:09:25.576Z,103579.25
2024-01-09T02:09:38.937Z,103589.56
2024-01-09T02:09:53.232Z,103578.38
2024-01-09T02:10:06.913Z,103589.56
2024-01-09T02:10:20.958Z,103586.88
2024-01-09T02:10:34.018Z,103589.56
2024-01-09T02:10:46.992Z,103588.66
2024-01-09T02:10:59.960Z,103582.63
2024-01-09T02:11:14.393Z,103586.88
2024-01-09T02:11:27.451Z,103579.16
2024-01-09T02:11:40.583Z,103583.41
2024-01-09T02:11:54.558Z,103580.84
2024-01-09T02:12:08.654Z,103586.00
2024-01-09T02:12:21.547Z,103578.28
2024-01-09T02:12:34.638Z,103584.22
2024-01-09T02:12:47.745Z,103579.97
2024-01-09T02:13:00.669Z,103583.41
2024-01-09T02:13:15.189Z,103573.94
2024-01-09T02:13:28.059Z,103592.00
2024-01-09T02:13:41.267Z,103584.22
2024-01-09T02:13:54.122Z,103580.84
2024-01-09T02:14:07.332Z,103579.06
2024-01-09T02:14:20.282Z,103590.25
2024-01-09T02:14:33.392Z,103585.00
2024-01-09T02:14:46.554Z,103582.41
2024-01-09T02:14:59.516Z,103594.50
2024-01-09T02:15:12.443Z,103588.47
2024-01-09T02:15:26.410Z,103586.78
2024-01-09T02:15:39.901Z,103585.09
2024-01-09T02:15:52.810Z,103582.41
2024-01-09T02:16:05.925Z,103588.47
2024-01-09T02:16:19.090Z,103579.84
2024-01-09T02:16:32.012Z,103587.56
2024-01-09T02:16:44.961Z,103587.56
2024-01-09T02:16:57.849Z,103590.13
2024-01-09T02:17:10.864Z,103590.13
2024-01-09T02:17:24.794Z,103588.47
2024-01-09T02:17:40.276Z,103590.13
2024-01-09T02:17:53.545Z,103585.81
2024-01-09T02:18:06.852Z,103590.94
2024-01-09T02:18:20.053Z,103582.41
2024-01-09T02:18:33.098Z,103584.00
2024-01-09T02:18:46.060Z,103585.81
2024-01-09T02:18:59.083Z,103589.16
2024-01-09T02:19:12.335Z,103582.34
2024-01-09T02:19:25.305Z,103582.34
2024-01-09T02:19:39.331Z,103585.81
2024-01-09T02:19:52.457Z,103590.06
2024-01-09T02:20:07.662Z,103582.34
2024-01-09T02:20:23.694Z,103587.50
2024-01-09T02:20:36.802Z,103584.00
2024-01-09T02:20:49.861Z,103587.50
2024-01-09T02:21:02.891Z,103590.06
2024-01-09T02:21:15.990Z,103588.38
2024-01-09T02:21:30.553Z,103589.16
2024-01-09T02:21:44.677Z,103585.81
2024-01-09T02:21:57.681Z,103590.94
2024-01-09T02:22:10.539Z,103584.00
2024-01-09T02:22:23.790Z,103591.72
2024-01-09T02:22:37.089Z,103581.44
2024-01-09T02:22:50.214Z,103586.56
2024-01-09T02:23:03.472Z,103584.91
2024-01-09T02:23:17.437Z,103584.91
2024-01-09T02:23:30.733Z,103583.13
2024-01-09T02:23:44.491Z,103586.56
2024-01-09T02:23:57.729Z,103584.81
2024-01-09T02:24:10.743Z,103585.69
2024-01-09T02:24:23.644Z,103586.56
2024-01-09T02:24:36.710Z,103587.50
2024-01-09T02:24:49.548Z,103584.00
2024-01-09T02:25:02.496Z,103584.81
2024-01-09T02:25:16.443Z,103587.38
2024-01-09T02:25:29.924Z,103584.81
2024-01-09T02:25:43.041Z,103566.81
2024-01-09T02:26:05.490Z,103587.38
2024-01-09T02:26:39.678Z,103587.38
2024-01-09T02:27:05.385Z,103585.56
2024-01-09T02:27:29.273Z,103588.16
2024-01-09T02:27:51.588Z,103589.94
2024-01-09T02:28:12.448Z,103584.69
2024-01-09T02:28:29.017Z,103583.81
2024-01-09T02:28:48.047Z,103588.06
2024-01-09T02:29:07.147Z,103584.59
2024-01-09T02:29:24.118Z,103582.94
2024-01-09T02:29:48.093Z,103588.06
2024-01-09T02:30:02.110Z,103585.50
2024-01-09T02:30:15.278Z,103589.72
2024-01-09T02:30:29.146Z,103588.06
2024-01-09T02:30:43.870Z,103587.16
2024-01-09T02:30:58.102Z,103587.16
2024-01-09T02:31:11.298Z,103592.31
2024-01-09T02:31:24.444Z,103587.97
2024-01-09T02:31:37.951Z,103587.16
2024-01-09T02:31:51.293Z,103591.53
2024-01-09T02:32:05.875Z,103582.00
2024-01-09T02:32:21.269Z,103581.25
2024-01-09T02:32:36.242Z,103582.00
2024-01-09T02:32:49.542Z,103584.59
2024-01-09T02:33:02.923Z,103588.06
2024-01-09T02:33:16.244Z,103587.16
2024-01-09T02:33:29.939Z,103587.16
2024-01-09T02:33:44.592Z,103583.81
2024-01-09T02:33:59.938Z,103585.56
2024-01-09T02:34:14.555Z,103585.50
2024-01-09T02:34:29.835Z,103590.66
2024-01-09T02:34:44.776Z,103587.16
2024-01-09T02:34:57.798Z,103583.69
2024-01-09T02:35:10.779Z,103584.59
2024-01-09T02:35:23.892Z,103583.69
2024-01-09T02:35:37.155Z,103582.00
2024-01-09T02:35:50.199Z,103586.28
2024-01-09T02:36:03.150Z,103594.00
2024-01-09T02:36:17.095Z,103584.50
2024-01-09T02:36:30.006Z,103587.97
2024-01-09T02:36:42.940Z,103591.34
2024-01-09T02:36:55.855Z,103582.72